Time;durP1;ratioP1;P1;durP2;ratioP2;P2;SDS_P1;SDS_P2;PMS_P1;PMS_P2;Temp;Humidity;BMP_temperature;BMP_pressure;BME280_temperature;BME280_humidity;BME280_pressure;Samples;Min_cycle;Max_cycle;Signal;HPM_P1;HPM_P2
2022/02/01 00:01:57;;;;;;;43.88;18.60;;;;;;;;;;5011232;28;20029;-52
2022/02/01 00:04:56;;;;;;;37.03;17.40;;;;;;;;;;5029949;28;20121;-50
2022/02/01 00:12:29;;;;;;;50.42;22.75;;;;;;;;;;5031736;28;20091;-46
2022/02/01 00:17:59;;;;;;;50.42;23.63;;;;;;;;;;5032920;28;20029;-49
2022/02/01 00:34:37;;;;;;;48.85;23.60;;;;;;;;;;5032726;28;20045;-51
2022/02/01 00:37:07;;;;;;;50.08;22.58;;;;;;;;;;5036162;28;20034;-48
2022/02/01 00:39:42;;;;;;;59.35;25.88;;;;;;;;;;5036582;28;20056;-46
2022/02/01 00:42:10;;;;;;;71.70;32.28;;;;;;;;;;5036506;28;20037;-50
2022/02/01 00:44:36;;;;;;;54.78;27.23;;;;;;;;;;5036345;28;20053;-51
2022/02/01 00:47:02;;;;;;;54.22;25.67;;;;;;;;;;5036225;28;20037;-49
2022/02/01 00:49:29;;;;;;;47.50;21.75;;;;;;;;;;5036061;28;20397;-48
2022/02/01 00:51:56;;;;;;;37.65;20.40;;;;;;;;;;5036097;28;20030;-51
2022/02/01 00:54:22;;;;;;;35.90;17.75;;;;;;;;;;5036130;28;20029;-48
2022/02/01 00:56:48;;;;;;;42.03;16.45;;;;;;;;;;5036080;28;20018;-46
2022/02/01 00:59:14;;;;;;;38.47;16.45;;;;;;;;;;5034661;28;20072;-48
2022/02/01 01:01:40;;;;;;;39.30;17.48;;;;;;;;;;5036098;28;20164;-50
2022/02/01 01:04:06;;;;;;;41.42;18.13;;;;;;;;;;5035841;28;20481;-49
2022/02/01 01:06:32;;;;;;;45.38;19.67;;;;;;;;;;5035889;28;20041;-51
2022/02/01 01:08:58;;;;;;;32.47;15.63;;;;;;;;;;5035902;28;20028;-46
2022/02/01 01:11:24;;;;;;;34.50;16.13;;;;;;;;;;5035763;28;20466;-49
2022/02/01 01:46:28;;;;;;;27.08;12.40;;;;;;;;;;5034545;28;20049;-50
2022/02/01 01:54:23;;;;;;;29.85;12.75;;;;;;;;;;5035049;28;20088;-48
2022/02/01 01:56:53;;;;;;;33.58;14.45;;;;;;;;;;5034898;28;20025;-46
2022/02/01 01:59:19;;;;;;;27.45;12.52;;;;;;;;;;5034693;28;20088;-46
2022/02/01 02:01:45;;;;;;;23.02;11.40;;;;;;;;;;5034898;28;20026;-46
2022/02/01 02:04:12;;;;;;;26.52;10.88;;;;;;;;;;5034950;28;20478;-50
2022/02/01 02:06:38;;;;;;;29.10;11.90;;;;;;;;;;5034863;28;20497;-51
2022/02/01 02:09:06;;;;;;;23.05;12.77;;;;;;;;;;5034843;28;20022;-51
2022/02/01 02:14:23;;;;;;;25.08;12.27;;;;;;;;;;5034676;28;20394;-46
2022/02/01 02:16:51;;;;;;;28.20;12.45;;;;;;;;;;5034505;28;20030;-45
2022/02/01 02:19:18;;;;;;;22.38;10.77;;;;;;;;;;5034518;28;20121;-50
2022/02/01 02:22:04;;;;;;;28.65;11.02;;;;;;;;;;5034693;28;20022;-46
2022/02/01 02:24:31;;;;;;;23.38;11.57;;;;;;;;;;5034362;28;20087;-46
2022/02/01 02:27:02;;;;;;;29.23;12.73;;;;;;;;;;5034552;28;20038;-50
2022/02/01 02:29:29;;;;;;;22.33;12.17;;;;;;;;;;5034063;28;20136;-46
2022/02/01 02:31:56;;;;;;;26.17;11.98;;;;;;;;;;5034403;28;20030;-50
2022/02/01 02:34:22;;;;;;;28.58;12.82;;;;;;;;;;5034243;28;20028;-46
2022/02/01 02:36:57;;;;;;;25.95;12.35;;;;;;;;;;5034296;28;20100;-46
2022/02/01 02:39:37;;;;;;;31.70;13.52;;;;;;;;;;5034155;28;20025;-48
2022/02/01 02:42:15;;;;;;;25.95;12.77;;;;;;;;;;5034200;28;20051;-47
2022/02/01 02:47:27;;;;;;;28.60;12.30;;;;;;;;;;5033925;28;20048;-49
2022/02/01 02:49:54;;;;;;;27.25;12.32;;;;;;;;;;5033997;28;20045;-50
2022/02/01 02:52:20;;;;;;;23.08;12.05;;;;;;;;;;5034083;28;20440;-45
2022/02/01 02:54:46;;;;;;;25.23;11.65;;;;;;;;;;5032719;28;20021;-46
2022/02/01 02:57:12;;;;;;;24.52;11.40;;;;;;;;;;5033937;28;20036;-46
2022/02/01 02:59:38;;;;;;;24.40;11.88;;;;;;;;;;5032908;28;20040;-48
2022/02/01 03:02:06;;;;;;;25.38;12.70;;;;;;;;;;5033787;28;20040;-50
2022/02/01 03:04:33;;;;;;;19.95;11.32;;;;;;;;;;5034009;28;20022;-47
2022/02/01 03:07:02;;;;;;;24.88;10.95;;;;;;;;;;5033711;28;20428;-46
2022/02/01 03:09:29;;;;;;;20.63;10.82;;;;;;;;;;5033820;28;20049;-46
2022/02/01 03:11:58;;;;;;;21.58;11.70;;;;;;;;;;5033718;28;20028;-50
2022/02/01 03:22:09;;;;;;;22.70;11.95;;;;;;;;;;5033464;28;20099;-47
2022/02/01 03:24:35;;;;;;;26.83;13.25;;;;;;;;;;5033401;28;20029;-46
2022/02/01 03:27:01;;;;;;;28.02;13.82;;;;;;;;;;5033319;28;20039;-50
2022/02/01 03:29:27;;;;;;;25.88;13.07;;;;;;;;;;5033009;28;20121;-48
2022/02/01 03:31:53;;;;;;;27.13;13.38;;;;;;;;;;5033286;28;20029;-46
2022/02/01 03:34:19;;;;;;;27.13;14.32;;;;;;;;;;5033385;28;20061;-49
2022/02/01 03:36:46;;;;;;;25.67;14.13;;;;;;;;;;5033437;28;20079;-46
2022/02/01 03:39:12;;;;;;;29.67;15.00;;;;;;;;;;5033282;28;20022;-51
2022/02/01 03:41:38;;;;;;;28.60;14.73;;;;;;;;;;5033456;28;20410;-50
2022/02/01 03:44:06;;;;;;;28.65;14.68;;;;;;;;;;5033357;28;20100;-50
2022/02/01 03:46:32;;;;;;;29.83;15.15;;;;;;;;;;5033155;28;20152;-46
2022/02/01 03:48:58;;;;;;;32.13;16.08;;;;;;;;;;5033245;28;20060;-46
2022/02/01 03:51:24;;;;;;;30.30;16.25;;;;;;;;;;5033002;28;20029;-47
2022/02/01 03:53:50;;;;;;;31.88;16.13;;;;;;;;;;5033378;28;20040;-46
2022/02/01 03:56:16;;;;;;;29.35;17.27;;;;;;;;;;5033017;28;20051;-46
2022/02/01 03:58:42;;;;;;;29.38;16.45;;;;;;;;;;5032891;28;20194;-45
2022/02/01 04:01:08;;;;;;;32.63;16.48;;;;;;;;;;5032828;28;20033;-47
2022/02/01 04:03:34;;;;;;;29.83;17.20;;;;;;;;;;5033036;28;20057;-49
2022/02/01 04:06:00;;;;;;;31.70;17.08;;;;;;;;;;5032849;28;20466;-49
2022/02/01 04:08:26;;;;;;;32.38;16.65;;;;;;;;;;5033284;28;20127;-50
2022/02/01 04:10:52;;;;;;;32.65;16.60;;;;;;;;;;5035801;28;20100;-50
2022/02/01 04:13:22;;;;;;;35.70;17.70;;;;;;;;;;5036919;28;20056;-51
2022/02/01 04:15:48;;;;;;;36.80;17.83;;;;;;;;;;5036750;28;20026;-50
2022/02/01 04:18:14;;;;;;;32.75;16.92;;;;;;;;;;5036782;28;20033;-50
2022/02/01 04:20:40;;;;;;;33.90;18.58;;;;;;;;;;5036952;28;20032;-50
2022/02/01 04:23:06;;;;;;;36.08;17.90;;;;;;;;;;5036654;28;20033;-49
2022/02/01 04:25:33;;;;;;;32.70;16.38;;;;;;;;;;5036786;28;20033;-51
2022/02/01 04:27:59;;;;;;;32.38;16.65;;;;;;;;;;5036389;28;20439;-49
2022/02/01 04:30:25;;;;;;;34.97;17.67;;;;;;;;;;5036517;28;20030;-45
2022/02/01 04:32:52;;;;;;;37.78;19.00;;;;;;;;;;5036804;28;20385;-50
2022/02/01 04:35:32;;;;;;;48.20;25.83;;;;;;;;;;5036514;28;20539;-47
2022/02/01 04:37:58;;;;;;;61.97;28.48;;;;;;;;;;5036507;28;20029;-50
2022/02/01 04:40:25;;;;;;;42.65;21.35;;;;;;;;;;5036377;28;20033;-46
2022/02/01 04:42:52;;;;;;;53.25;26.75;;;;;;;;;;5036873;28;20080;-48
2022/02/01 04:45:20;;;;;;;44.42;22.67;;;;;;;;;;5036217;28;20025;-48
2022/02/01 04:47:49;;;;;;;37.50;20.60;;;;;;;;;;5036155;28;20037;-47
2022/02/01 04:50:20;;;;;;;44.47;23.25;;;;;;;;;;5036010;28;20030;-46
2022/02/01 04:52:49;;;;;;;42.00;22.90;;;;;;;;;;5036068;28;20615;-50
2022/02/01 04:55:18;;;;;;;50.28;25.20;;;;;;;;;;5036084;28;20638;-46
2022/02/01 04:57:53;;;;;;;41.55;19.30;;;;;;;;;;5036023;28;20152;-50
2022/02/01 05:00:20;;;;;;;36.63;17.70;;;;;;;;;;5036174;28;20433;-46
2022/02/01 05:02:46;;;;;;;32.97;17.70;;;;;;;;;;5036043;28;20025;-45
2022/02/01 05:05:12;;;;;;;41.58;19.83;;;;;;;;;;5035972;28;20048;-50
2022/02/01 05:07:38;;;;;;;34.58;17.90;;;;;;;;;;5035807;28;20069;-50
2022/02/01 05:10:05;;;;;;;34.25;17.67;;;;;;;;;;5036122;28;20029;-51
2022/02/01 05:12:36;;;;;;;46.85;20.45;;;;;;;;;;5036007;28;20026;-50
2022/02/01 05:15:06;;;;;;;36.97;17.60;;;;;;;;;;5035698;28;20036;-49
2022/02/01 05:17:34;;;;;;;39.65;19.23;;;;;;;;;;5035801;28;20053;-50
2022/02/01 05:20:09;;;;;;;37.97;17.90;;;;;;;;;;5035540;28;20048;-49
2022/02/01 05:22:35;;;;;;;41.58;18.20;;;;;;;;;;5034830;28;20026;-50
2022/02/01 05:25:01;;;;;;;41.72;18.85;;;;;;;;;;5035735;28;20021;-50
2022/02/01 05:27:29;;;;;;;34.80;17.27;;;;;;;;;;5035374;28;20037;-51
2022/02/01 05:29:57;;;;;;;40.08;18.17;;;;;;;;;;5035707;28;20490;-47
2022/02/01 05:32:24;;;;;;;32.55;16.75;;;;;;;;;;5035381;28;20038;-46
2022/02/01 05:34:51;;;;;;;33.92;17.00;;;;;;;;;;5035308;28;20463;-50
2022/02/01 05:37:19;;;;;;;31.65;16.52;;;;;;;;;;5035357;28;20037;-49
2022/02/01 05:39:45;;;;;;;42.65;18.23;;;;;;;;;;5035420;28;20032;-50
2022/02/01 05:42:16;;;;;;;32.30;16.95;;;;;;;;;;5035474;28;20087;-47
2022/02/01 05:44:42;;;;;;;34.15;16.85;;;;;;;;;;5035353;28;20026;-50
2022/02/01 05:47:08;;;;;;;34.78;17.85;;;;;;;;;;5035414;28;20355;-47
2022/02/01 05:49:34;;;;;;;39.15;18.77;;;;;;;;;;5035198;28;20045;-46
2022/02/01 05:52:01;;;;;;;35.45;19.17;;;;;;;;;;5035076;28;20448;-46
2022/02/01 05:54:29;;;;;;;35.03;19.20;;;;;;;;;;5034859;28;20025;-46
2022/02/01 05:56:55;;;;;;;33.63;17.50;;;;;;;;;;5035057;28;20033;-46
2022/02/01 05:59:21;;;;;;;41.15;19.00;;;;;;;;;;5035235;28;20038;-46
2022/02/01 06:01:47;;;;;;;37.60;18.98;;;;;;;;;;5046818;28;20025;-45
2022/02/01 06:04:13;;;;;;;41.25;22.17;;;;;;;;;;5054201;28;20407;-46
2022/02/01 06:06:39;;;;;;;46.40;22.45;;;;;;;;;;5054081;28;20025;-47
2022/02/01 06:09:05;;;;;;;47.95;20.42;;;;;;;;;;5054462;28;20031;-47
2022/02/01 06:11:32;;;;;;;33.10;15.90;;;;;;;;;;5054677;28;20021;-48
2022/02/01 06:13:58;;;;;;;33.75;16.73;;;;;;;;;;5054827;28;20029;-45
2022/02/01 06:16:24;;;;;;;32.42;14.30;;;;;;;;;;5054646;28;20090;-47
2022/02/01 06:18:51;;;;;;;28.27;14.90;;;;;;;;;;5054670;28;20432;-47
2022/02/01 06:21:17;;;;;;;28.10;13.50;;;;;;;;;;5054469;28;20033;-46
2022/02/01 06:23:43;;;;;;;32.22;15.98;;;;;;;;;;5054384;28;20025;-46
2022/02/01 06:26:13;;;;;;;33.47;16.85;;;;;;;;;;5054239;28;20061;-46
2022/02/01 06:28:39;;;;;;;41.83;18.60;;;;;;;;;;5054257;28;20052;-47
2022/02/01 06:31:05;;;;;;;46.10;21.45;;;;;;;;;;5054496;28;20112;-46
2022/02/01 06:33:31;;;;;;;38.30;20.10;;;;;;;;;;5054184;28;20025;-47
2022/02/01 06:35:58;;;;;;;40.97;19.85;;;;;;;;;;5054099;28;20499;-46
2022/02/01 06:38:24;;;;;;;46.80;22.20;;;;;;;;;;5053987;28;20060;-46
2022/02/01 06:40:50;;;;;;;42.80;20.45;;;;;;;;;;5054042;28;20032;-46
2022/02/01 06:43:17;;;;;;;30.23;16.83;;;;;;;;;;5054205;28;20044;-47
2022/02/01 06:45:43;;;;;;;28.63;15.70;;;;;;;;;;5054188;28;20025;-46
2022/02/01 06:48:09;;;;;;;30.85;14.93;;;;;;;;;;5053917;28;20067;-46
2022/02/01 06:50:35;;;;;;;28.38;15.32;;;;;;;;;;5053495;28;20021;-46
2022/02/01 06:53:03;;;;;;;33.53;17.27;;;;;;;;;;5053825;28;20389;-46
2022/02/01 06:58:22;;;;;;;44.22;22.77;;;;;;;;;;5031534;28;20033;-47
2022/02/01 07:00:48;;;;;;;38.25;21.15;;;;;;;;;;5031794;28;20041;-47
2022/02/01 07:03:14;;;;;;;38.08;20.27;;;;;;;;;;5031588;28;20489;-48
2022/02/01 07:05:40;;;;;;;61.45;31.85;;;;;;;;;;5031418;28;20025;-46
2022/02/01 07:08:07;;;;;;;54.33;30.08;;;;;;;;;;5031530;28;20057;-47
2022/02/01 07:10:33;;;;;;;69.10;37.08;;;;;;;;;;5031505;28;20142;-48
2022/02/01 07:13:00;;;;;;;58.00;32.83;;;;;;;;;;5031420;28;20032;-47
2022/02/01 07:15:26;;;;;;;64.82;36.95;;;;;;;;;;5031428;28;20171;-48
2022/02/01 07:17:53;;;;;;;62.92;35.88;;;;;;;;;;5031456;28;20033;-47
2022/02/01 07:20:20;;;;;;;52.08;31.20;;;;;;;;;;5031190;28;20025;-47
2022/02/01 07:22:48;;;;;;;47.75;25.42;;;;;;;;;;5031439;28;20585;-47
2022/02/01 07:25:23;;;;;;;33.53;15.88;;;;;;;;;;5031126;28;20029;-48
2022/02/01 07:27:49;;;;;;;19.73;13.18;;;;;;;;;;5030882;28;20096;-47
2022/02/01 07:30:18;;;;;;;21.73;12.20;;;;;;;;;;5031206;28;20091;-46
2022/02/01 07:32:44;;;;;;;20.33;10.73;;;;;;;;;;5031277;28;20441;-47
2022/02/01 07:35:10;;;;;;;20.92;10.57;;;;;;;;;;5042384;28;20025;-46
2022/02/01 07:37:37;;;;;;;18.23;9.98;;;;;;;;;;5053183;28;20032;-46
2022/02/01 07:40:09;;;;;;;19.63;11.15;;;;;;;;;;5053468;28;20424;-46
2022/02/01 07:42:34;;;;;;;;;;;;;;;;;;5053679;28;20025;-47
2022/02/01 07:45:03;;;;;;;23.10;12.50;;;;;;;;;;5052382;28;20388;-48
2022/02/01 07:47:31;;;;;;;21.33;11.50;;;;;;;;;;5052896;28;20033;-47
2022/02/01 07:50:01;;;;;;;20.90;11.93;;;;;;;;;;5052852;28;20159;-47
2022/02/01 07:52:28;;;;;;;45.45;24.20;;;;;;;;;;5053153;28;20492;-47
2022/02/01 07:54:54;;;;;;;63.72;28.50;;;;;;;;;;5053020;28;20090;-48
2022/02/01 07:57:20;;;;;;;93.78;32.60;;;;;;;;;;5052968;28;20170;-48
2022/02/01 07:59:46;;;;;;;77.95;31.23;;;;;;;;;;5052996;28;20033;-48
2022/02/01 08:02:19;;;;;;;66.20;33.65;;;;;;;;;;5053011;28;20029;-48
2022/02/01 08:04:45;;;;;;;60.00;34.88;;;;;;;;;;5052773;28;20132;-48
2022/02/01 08:07:11;;;;;;;48.00;27.05;;;;;;;;;;5052794;28;20037;-49
2022/02/01 08:09:42;;;;;;;30.27;17.60;;;;;;;;;;5052897;28;20029;-49
2022/02/01 08:12:26;;;;;;;28.65;15.00;;;;;;;;;;5052878;28;20021;-48
2022/02/01 08:17:28;;;;;;;25.38;11.93;;;;;;;;;;5052707;28;20033;-47
2022/02/01 08:20:02;;;;;;;39.92;16.13;;;;;;;;;;5052706;28;20025;-47
2022/02/01 08:24:57;;;;;;;18.13;12.00;;;;;;;;;;5052742;28;20495;-48
2022/02/01 08:27:23;;;;;;;24.08;13.43;;;;;;;;;;5052742;28;20029;-48
2022/02/01 08:29:49;;;;;;;22.38;12.38;;;;;;;;;;5052849;28;20045;-46
2022/02/01 08:32:15;;;;;;;21.98;12.65;;;;;;;;;;5052556;28;20039;-47
2022/02/01 08:34:41;;;;;;;23.17;12.55;;;;;;;;;;5052869;28;20082;-48
2022/02/01 08:37:07;;;;;;;21.92;12.55;;;;;;;;;;5052954;28;20373;-47
2022/02/01 08:39:33;;;;;;;19.10;12.35;;;;;;;;;;5052763;28;20060;-48
2022/02/01 08:41:59;;;;;;;18.05;10.93;;;;;;;;;;5052539;28;20017;-48
2022/02/01 08:44:30;;;;;;;20.42;11.85;;;;;;;;;;5052537;28;20035;-46
2022/02/01 08:46:56;;;;;;;17.17;10.95;;;;;;;;;;5052330;28;20080;-48
2022/02/01 08:49:22;;;;;;;18.15;10.40;;;;;;;;;;5052681;28;20029;-46
2022/02/01 08:52:04;;;;;;;17.75;10.82;;;;;;;;;;5052561;28;20025;-47
2022/02/01 08:54:32;;;;;;;19.33;11.30;;;;;;;;;;5052681;28;20021;-46
2022/02/01 08:59:43;;;;;;;20.25;12.20;;;;;;;;;;5056159;28;20044;-46
2022/02/01 09:02:10;;;;;;;13.93;9.95;;;;;;;;;;5056311;28;20413;-48
2022/02/01 09:04:36;;;;;;;16.23;10.45;;;;;;;;;;5056103;28;20032;-46
2022/02/01 09:07:03;;;;;;;17.50;10.32;;;;;;;;;;5055844;28;20095;-48
2022/02/01 09:09:29;;;;;;;12.13;9.20;;;;;;;;;;5054323;28;20033;-47
2022/02/01 09:11:56;;;;;;;11.98;9.48;;;;;;;;;;5055773;28;20025;-47
2022/02/01 09:14:24;;;;;;;13.98;10.07;;;;;;;;;;5055802;28;20021;-47
2022/02/01 09:16:50;;;;;;;15.73;10.60;;;;;;;;;;5056030;28;20496;-48
2022/02/01 09:19:17;;;;;;;14.25;10.05;;;;;;;;;;5054408;28;20029;-48
2022/02/01 09:21:44;;;;;;;13.30;9.00;;;;;;;;;;5055584;28;20519;-45
2022/02/01 09:24:10;;;;;;;13.60;9.45;;;;;;;;;;5055505;28;20053;-45
2022/02/01 09:26:45;;;;;;;14.63;9.30;;;;;;;;;;5055549;28;20025;-46
2022/02/01 09:29:11;;;;;;;12.52;8.55;;;;;;;;;;5055150;28;20103;-45
2022/02/01 09:31:37;;;;;;;13.18;10.23;;;;;;;;;;5055631;28;20048;-46
2022/02/01 09:34:04;;;;;;;13.43;10.48;;;;;;;;;;5055704;28;20104;-45
2022/02/01 09:36:30;;;;;;;13.30;10.13;;;;;;;;;;5055310;28;20104;-45
2022/02/01 09:38:56;;;;;;;13.68;10.20;;;;;;;;;;5055465;28;20056;-46
2022/02/01 09:41:28;;;;;;;13.05;10.55;;;;;;;;;;5055072;28;20032;-45
2022/02/01 09:43:54;;;;;;;13.68;9.70;;;;;;;;;;5055383;28;20451;-45
2022/02/01 09:46:21;;;;;;;14.02;10.55;;;;;;;;;;5055338;28;20013;-45
2022/02/01 09:48:48;;;;;;;12.98;10.57;;;;;;;;;;5055025;28;20058;-47
2022/02/01 09:51:14;;;;;;;16.98;11.77;;;;;;;;;;5055072;28;20025;-45
2022/02/01 09:53:41;;;;;;;14.05;10.73;;;;;;;;;;5055171;28;20029;-45
2022/02/01 09:56:07;;;;;;;20.90;13.75;;;;;;;;;;5054852;28;20466;-47
2022/02/01 09:58:35;;;;;;;16.90;11.63;;;;;;;;;;5055381;28;20032;-46
2022/02/01 10:01:02;;;;;;;17.45;12.65;;;;;;;;;;5055364;28;20029;-46
2022/02/01 10:03:29;;;;;;;17.08;11.13;;;;;;;;;;5054953;28;20040;-47
2022/02/01 10:06:08;;;;;;;20.30;12.75;;;;;;;;;;5054694;28;20017;-46
2022/02/01 10:08:35;;;;;;;19.50;12.52;;;;;;;;;;5054132;28;20416;-45
2022/02/01 10:11:01;;;;;;;16.77;12.13;;;;;;;;;;5054568;28;20021;-45
2022/02/01 10:13:28;;;;;;;19.50;14.30;;;;;;;;;;5054703;28;20029;-45
2022/02/01 10:18:45;;;;;;;19.50;12.43;;;;;;;;;;5032779;28;20033;-46
2022/02/01 10:21:12;;;;;;;23.00;14.48;;;;;;;;;;5032470;28;20137;-47
2022/02/01 10:23:39;;;;;;;19.75;14.27;;;;;;;;;;5032605;28;20073;-44
2022/02/01 10:26:21;;;;;;;18.88;13.55;;;;;;;;;;5032235;28;20057;-46
2022/02/01 10:31:28;;;;;;;39.20;23.40;;;;;;;;;;5032304;28;20026;-46
2022/02/01 10:34:04;;;;;;;33.08;18.88;;;;;;;;;;5032376;28;20026;-46
2022/02/01 10:36:41;;;;;;;29.90;17.08;;;;;;;;;;5032231;28;20548;-46
2022/02/01 10:39:17;;;;;;;27.27;15.98;;;;;;;;;;5032537;28;20037;-44
2022/02/01 10:41:51;;;;;;;36.60;19.27;;;;;;;;;;5031653;28;20037;-44
2022/02/01 10:44:18;;;;;;;60.35;28.48;;;;;;;;;;5032102;28;20037;-47
2022/02/01 10:46:58;;;;;;;56.08;23.33;;;;;;;;;;5031708;28;20106;-46
2022/02/01 10:49:31;;;;;;;54.17;23.50;;;;;;;;;;5032144;28;20140;-46
2022/02/01 10:52:01;;;;;;;42.70;22.35;;;;;;;;;;5031292;28;20042;-46
2022/02/01 10:54:28;;;;;;;29.30;16.30;;;;;;;;;;5031860;28;20026;-46
2022/02/01 10:56:54;;;;;;;41.22;19.35;;;;;;;;;;5051751;28;20048;-46
2022/02/01 10:59:20;;;;;;;61.78;23.73;;;;;;;;;;5054043;28;20051;-47
2022/02/01 11:01:46;;;;;;;77.97;29.17;;;;;;;;;;5053818;28;20029;-47
2022/02/01 11:04:12;;;;;;;55.08;23.23;;;;;;;;;;5053879;28;20108;-45
2022/02/01 11:06:38;;;;;;;60.65;24.77;;;;;;;;;;5053629;28;20103;-44
2022/02/01 11:09:04;;;;;;;44.22;18.88;;;;;;;;;;5053860;28;20021;-45
2022/02/01 11:11:30;;;;;;;46.03;21.10;;;;;;;;;;5053566;28;20028;-44
2022/02/01 11:13:56;;;;;;;38.70;17.20;;;;;;;;;;5053458;28;20047;-46
2022/02/01 11:16:24;;;;;;;27.67;14.90;;;;;;;;;;5053737;28;20066;-47
2022/02/01 11:18:54;;;;;;;42.03;21.83;;;;;;;;;;5053039;28;20021;-44
2022/02/01 11:21:21;;;;;;;60.80;27.87;;;;;;;;;;5053168;28;20393;-45
2022/02/01 11:24:06;;;;;;;28.70;15.77;;;;;;;;;;5053463;28;20032;-45
2022/02/01 11:26:49;;;;;;;26.63;13.70;;;;;;;;;;5053310;28;20028;-47
2022/02/01 11:29:31;;;;;;;20.35;12.65;;;;;;;;;;5053283;28;20048;-46
2022/02/01 11:32:01;;;;;;;23.23;13.60;;;;;;;;;;5053239;28;20033;-45
2022/02/01 11:34:29;;;;;;;21.48;12.40;;;;;;;;;;5053214;28;20450;-45
2022/02/01 11:36:56;;;;;;;19.48;12.57;;;;;;;;;;5053094;28;20021;-44
2022/02/01 11:39:23;;;;;;;20.35;12.50;;;;;;;;;;5053074;28;20021;-45
2022/02/01 11:41:52;;;;;;;27.40;15.05;;;;;;;;;;5053162;28;20065;-46
2022/02/01 11:44:21;;;;;;;26.92;14.05;;;;;;;;;;5053225;28;20018;-48
2022/02/01 11:47:08;;;;;;;24.77;15.43;;;;;;;;;;5053128;28;20032;-46
2022/02/01 11:49:37;;;;;;;39.95;17.98;;;;;;;;;;5053063;28;20037;-45
2022/02/01 11:52:11;;;;;;;39.80;19.10;;;;;;;;;;5052964;28;20033;-44
2022/02/01 11:54:37;;;;;;;33.85;17.58;;;;;;;;;;5053118;28;20128;-45
2022/02/01 11:57:14;;;;;;;23.95;13.25;;;;;;;;;;5053087;28;20025;-45
2022/02/01 11:59:58;;;;;;;42.67;19.80;;;;;;;;;;5051724;28;20029;-45
2022/02/01 12:02:30;;;;;;;36.33;16.90;;;;;;;;;;5053459;28;20109;-46
2022/02/01 12:05:15;;;;;;;43.17;18.60;;;;;;;;;;5052963;28;20023;-47
2022/02/01 12:07:42;;;;;;;38.17;18.33;;;;;;;;;;5052800;28;20477;-45
2022/02/01 12:10:15;;;;;;;35.10;16.95;;;;;;;;;;5053007;28;20024;-45
2022/02/01 12:12:42;;;;;;;26.67;13.10;;;;;;;;;;5052939;28;20032;-44
2022/02/01 12:15:11;;;;;;;31.05;16.17;;;;;;;;;;5052810;28;20500;-45
2022/02/01 12:17:42;;;;;;;45.65;21.50;;;;;;;;;;5052931;28;20071;-45
2022/02/01 12:20:10;;;;;;;21.25;12.05;;;;;;;;;;5053072;28;20377;-46
2022/02/01 12:22:40;;;;;;;28.05;13.45;;;;;;;;;;5034976;28;20481;-46
2022/02/01 12:25:08;;;;;;;47.65;21.40;;;;;;;;;;5052673;28;20025;-46
2022/02/01 12:27:34;;;;;;;27.70;14.20;;;;;;;;;;5052304;28;20068;-44
2022/02/01 12:30:02;;;;;;;35.05;16.33;;;;;;;;;;5052876;28;20056;-47
2022/02/01 12:32:28;;;;;;;32.30;16.40;;;;;;;;;;5056252;28;20108;-44
2022/02/01 12:34:54;;;;;;;28.25;15.18;;;;;;;;;;5056437;28;20465;-45
2022/02/01 12:37:24;;;;;;;40.78;19.23;;;;;;;;;;5056376;28;20104;-47
2022/02/01 12:40:11;;;;;;;53.45;22.88;;;;;;;;;;5056397;28;20059;-47
2022/02/01 12:42:47;;;;;;;43.60;19.30;;;;;;;;;;5056290;28;20393;-46
2022/02/01 12:48:01;;;;;;;42.28;18.25;;;;;;;;;;5056402;28;20404;-46
2022/02/01 12:50:28;;;;;;;33.35;15.75;;;;;;;;;;5056121;28;20075;-44
2022/02/01 12:52:58;;;;;;;26.25;14.82;;;;;;;;;;5056399;28;20051;-45
2022/02/01 12:55:25;;;;;;;21.15;13.90;;;;;;;;;;5056527;28;20032;-46
2022/02/01 12:57:52;;;;;;;25.98;14.50;;;;;;;;;;5056112;28;20025;-46
2022/02/01 13:00:19;;;;;;;22.70;13.32;;;;;;;;;;5056033;28;20540;-45
2022/02/01 13:02:46;;;;;;;28.45;15.40;;;;;;;;;;5056048;28;20025;-48
2022/02/01 13:05:17;;;;;;;38.28;19.75;;;;;;;;;;5055981;28;20029;-48
2022/02/01 13:21:03;;;;;;;34.33;18.55;;;;;;;;;;5055811;28;20054;-46
2022/02/01 13:23:49;;;;;;;50.63;24.85;;;;;;;;;;5055562;28;20021;-45
2022/02/01 13:26:19;;;;;;;42.63;18.17;;;;;;;;;;5055550;28;20025;-45
2022/02/01 13:28:58;;;;;;;43.10;18.95;;;;;;;;;;5055385;28;20393;-46
2022/02/01 13:31:29;;;;;;;35.10;18.02;;;;;;;;;;5055561;28;20029;-47
2022/02/01 13:33:58;;;;;;;30.92;17.40;;;;;;;;;;5055496;28;20021;-45
2022/02/01 13:36:25;;;;;;;27.63;13.38;;;;;;;;;;5055300;28;20027;-45
2022/02/01 13:38:56;;;;;;;25.15;15.20;;;;;;;;;;5055461;28;20075;-47
2022/02/01 13:41:23;;;;;;;29.42;14.98;;;;;;;;;;5055431;28;20100;-47
2022/02/01 13:43:50;;;;;;;22.70;14.65;;;;;;;;;;5054578;28;20024;-45
2022/02/01 13:46:30;;;;;;;23.40;13.20;;;;;;;;;;5055372;28;20029;-45
2022/02/01 13:48:59;;;;;;;22.05;12.90;;;;;;;;;;5055122;28;20044;-47
2022/02/01 13:51:25;;;;;;;28.15;15.65;;;;;;;;;;5055303;28;20029;-46
2022/02/01 13:53:58;;;;;;;43.03;21.85;;;;;;;;;;5055019;28;20021;-45
2022/02/01 13:56:28;;;;;;;34.45;17.88;;;;;;;;;;5055267;28;20027;-46
2022/02/01 13:59:07;;;;;;;26.25;15.10;;;;;;;;;;5055103;28;20025;-45
2022/02/01 14:01:33;;;;;;;27.05;13.05;;;;;;;;;;5055025;28;20134;-45
2022/02/01 14:04:09;;;;;;;22.35;13.60;;;;;;;;;;5055017;28;20028;-46
2022/02/01 14:06:55;;;;;;;20.55;13.43;;;;;;;;;;5055080;28;20104;-47
2022/02/01 14:34:07;;;;;;;62.72;23.88;;;;;;;;;;5031815;28;20528;-49
2022/02/01 14:36:36;;;;;;;55.15;26.08;;;;;;;;;;5028803;28;20040;-45
2022/02/01 14:44:35;;;;;;;32.65;15.70;;;;;;;;;;5032069;28;20091;-44
2022/02/01 14:47:01;;;;;;;29.05;15.45;;;;;;;;;;5014399;28;20426;-44
2022/02/01 14:49:28;;;;;;;25.63;14.57;;;;;;;;;;5004181;28;20045;-46
2022/02/01 14:51:56;;;;;;;24.27;14.65;;;;;;;;;;5004296;28;20060;-45
2022/02/01 14:54:30;;;;;;;30.52;13.77;;;;;;;;;;5004183;28;20588;-45
2022/02/01 15:03:41;;;;;;;27.75;16.80;;;;;;;;;;5004255;28;20038;-47
2022/02/01 15:05:35;;;;;;;29.52;16.00;;;;;;;;;;5018183;28;21583;-44
2022/02/01 15:13:22;;;;;;;27.65;14.20;;;;;;;;;;5017488;28;20500;-45
2022/02/01 15:15:48;;;;;;;29.10;14.65;;;;;;;;;;5017564;28;20070;-45
2022/02/01 15:18:14;;;;;;;26.05;15.10;;;;;;;;;;5017243;28;20722;-47
2022/02/01 15:20:40;;;;;;;25.83;15.82;;;;;;;;;;5017680;28;20036;-46
2022/02/01 15:23:06;;;;;;;28.20;16.45;;;;;;;;;;5017011;28;20028;-45
2022/02/01 15:25:33;;;;;;;29.45;17.13;;;;;;;;;;5020216;28;20061;-45
2022/02/01 15:28:01;;;;;;;36.55;20.15;;;;;;;;;;5017355;28;20060;-44
2022/02/01 15:30:28;;;;;;;38.17;17.05;;;;;;;;;;5017387;28;20125;-45
2022/02/01 15:32:54;;;;;;;29.45;16.10;;;;;;;;;;5017759;28;20053;-44
2022/02/01 15:35:21;;;;;;;40.90;21.65;;;;;;;;;;5017094;28;20032;-44
2022/02/01 15:37:52;;;;;;;50.05;28.48;;;;;;;;;;5017326;28;20033;-45
2022/02/01 15:57:01;;;;;;;62.15;32.35;;;;;;;;;;5016678;28;20527;-45
2022/02/01 15:59:37;;;;;;;48.27;27.47;;;;;;;;;;5017217;28;20040;-45
2022/02/01 16:02:09;;;;;;;48.17;25.50;;;;;;;;;;5015991;28;20030;-44
2022/02/01 16:04:37;;;;;;;55.25;25.88;;;;;;;;;;5016947;28;20445;-45
2022/02/01 16:07:17;;;;;;;48.38;25.65;;;;;;;;;;5019938;28;20166;-44
2022/02/01 16:12:21;;;;;;;51.95;25.85;;;;;;;;;;5021035;28;20021;-44
2022/02/01 16:14:47;;;;;;;;;;;;;;;;;;5021418;28;20024;-45
2022/02/01 16:17:13;;;;;;;47.15;22.90;;;;;;;;;;5020786;28;19913;-45
2022/02/01 16:19:39;;;;;;;49.13;24.83;;;;;;;;;;5020972;28;20025;-44
2022/02/01 16:22:05;;;;;;;59.15;28.92;;;;;;;;;;5020407;28;20055;-46
2022/02/01 16:24:35;;;;;;;75.15;39.10;;;;;;;;;;5020903;28;20090;-45
2022/02/01 16:27:02;;;;;;;74.55;38.78;;;;;;;;;;5020196;28;20040;-44
2022/02/01 16:29:28;;;;;;;55.38;32.75;;;;;;;;;;5020268;28;20437;-44
2022/02/01 16:31:54;;;;;;;63.78;35.17;;;;;;;;;;5020817;28;20115;-44
2022/02/01 16:34:20;;;;;;;56.20;29.98;;;;;;;;;;5020438;28;20026;-44
2022/02/01 16:36:48;;;;;;;51.40;27.08;;;;;;;;;;5019117;28;20028;-44
2022/02/01 16:39:16;;;;;;;47.15;23.35;;;;;;;;;;5020363;28;20521;-45
2022/02/01 16:41:44;;;;;;;58.47;26.95;;;;;;;;;;5020338;28;20032;-44
2022/02/01 16:44:11;;;;;;;74.28;34.50;;;;;;;;;;5020640;28;21376;-45
2022/02/01 16:46:39;;;;;;;72.90;35.53;;;;;;;;;;5020864;28;20052;-45
2022/02/01 16:49:06;;;;;;;50.65;27.25;;;;;;;;;;5020331;28;20036;-45
2022/02/01 16:51:32;;;;;;;58.30;23.60;;;;;;;;;;5020002;28;20491;-45
2022/02/01 16:54:07;;;;;;;50.67;26.85;;;;;;;;;;5020446;28;20022;-44
2022/02/01 16:59:25;;;;;;;42.78;21.30;;;;;;;;;;5020372;28;20021;-45
2022/02/01 17:01:51;;;;;;;50.90;26.45;;;;;;;;;;5020163;28;20962;-45
2022/02/01 17:04:18;;;;;;;48.33;24.50;;;;;;;;;;5020049;28;20025;-44
2022/02/01 17:06:44;;;;;;;48.72;26.05;;;;;;;;;;5020146;28;20525;-46
2022/02/01 17:09:12;;;;;;;40.55;22.33;;;;;;;;;;5019794;28;20128;-43
2022/02/01 17:17:23;;;;;;;46.83;25.23;;;;;;;;;;5018319;28;20037;-43
2022/02/01 17:22:33;;;;;;;55.30;24.05;;;;;;;;;;5019436;28;20036;-44
2022/02/01 17:24:59;;;;;;;51.03;23.13;;;;;;;;;;5019493;28;20021;-43